createdAt,value
2022-10-15T00:02:14.202Z,95.33
2022-10-15T00:04:49.071Z,95.08
2022-10-15T00:07:19.941Z,95.30
2022-10-15T00:09:50.814Z,94.76
2022-10-15T00:12:20.587Z,94.72
2022-10-15T00:14:53.488Z,95.22
2022-10-15T00:17:28.307Z,94.81
2022-10-15T00:19:58.292Z,95.08
2022-10-15T00:22:28.441Z,94.98
2022-10-15T00:24:57.637Z,95.05
2022-10-15T00:27:34.862Z,95.29
2022-10-15T00:30:04.802Z,95.13
2022-10-15T00:32:51.782Z,94.64
2022-10-15T00:35:24.848Z,95.21
2022-10-15T00:37:54.440Z,94.92
2022-10-15T00:40:32.659Z,94.79
2022-10-15T00:43:01.739Z,94.99
2022-10-15T00:45:32.417Z,94.65
2022-10-15T00:48:03.216Z,94.90
2022-10-15T00:50:33.974Z,95.07
2022-10-15T00:53:27.587Z,95.23
2022-10-15T00:55:58.134Z,94.89
2022-10-15T00:58:38.106Z,94.90
2022-10-15T01:01:16.550Z,95.06
2022-10-15T01:03:50.020Z,95.07
2022-10-15T01:06:19.417Z,95.14
2022-10-15T01:08:51.941Z,94.72
2022-10-15T01:11:54.355Z,94.88
2022-10-15T01:14:38.631Z,94.60
2022-10-15T01:17:23.215Z,95.19
2022-10-15T01:20:58.581Z,95.23
2022-10-15T01:24:27.487Z,95.25
2022-10-15T01:27:43.505Z,94.65
2022-10-15T01:30:38.615Z,95.28
2022-10-15T01:33:34.230Z,95.23
2022-10-15T01:36:16.057Z,94.87
2022-10-15T01:38:59.135Z,95.29
2022-10-15T01:41:38.239Z,94.75
2022-10-15T01:44:27.586Z,94.54
2022-10-15T01:47:03.833Z,94.69
2022-10-15T01:49:40.336Z,94.95
2022-10-15T01:52:16.152Z,94.82
2022-10-15T01:54:56.101Z,94.98
2022-10-15T01:57:32.217Z,94.69
2022-10-15T02:00:06.951Z,95.05
2022-10-15T02:02:52.246Z,94.64
2022-10-15T02:05:37.610Z,94.36
2022-10-15T02:08:20.473Z,94.74
2022-10-15T02:11:08.984Z,95.17
2022-10-15T02:13:53.143Z,94.47
2022-10-15T02:16:26.727Z,94.89
2022-10-15T02:19:08.451Z,94.49
2022-10-15T02:21:40.605Z,94.54
2022-10-15T02:24:15.613Z,94.53
2022-10-15T02:26:51.473Z,94.94
2022-10-15T02:29:24.356Z,94.35
2022-10-15T02:31:59.047Z,94.38
2022-10-15T02:34:32.619Z,94.62
2022-10-15T02:37:06.178Z,94.74
2022-10-15T02:39:36.172Z,94.41
2022-10-15T02:42:19.777Z,94.40
2022-10-15T02:44:49.235Z,94.07
2022-10-15T02:47:21.613Z,94.37
2022-10-15T02:49:57.292Z,93.96
2022-10-15T02:52:27.968Z,94.43
2022-10-15T02:55:05.112Z,94.37
2022-10-15T02:57:33.613Z,94.39
2022-10-15T03:00:03.050Z,94.35
2022-10-15T03:02:35.005Z,94.71
2022-10-15T03:05:05.116Z,94.34
2022-10-15T03:07:36.529Z,93.87
2022-10-15T03:10:31.494Z,94.23
2022-10-15T03:13:05.404Z,94.05
2022-10-15T03:15:34.714Z,93.92
2022-10-15T03:18:05.595Z,94.46
2022-10-15T03:20:36.837Z,94.15
2022-10-15T03:23:06.323Z,94.06
2022-10-15T03:25:41.986Z,94.02
2022-10-15T03:28:16.273Z,93.88
2022-10-15T03:30:47.454Z,93.83
2022-10-15T03:33:17.804Z,93.38
2022-10-15T03:35:54.317Z,93.65
2022-10-15T03:38:29.929Z,93.46
2022-10-15T03:41:05.511Z,93.68
2022-10-15T03:43:41.905Z,93.57
2022-10-15T03:46:14.407Z,93.58
2022-10-15T03:48:43.715Z,93.63
2022-10-15T03:51:24.619Z,93.42
2022-10-15T03:53:57.995Z,93.56
2022-10-15T03:56:38.345Z,93.67
2022-10-15T03:59:15.509Z,93.69
2022-10-15T04:01:45.661Z,93.50
2022-10-15T04:04:23.731Z,93.59
2022-10-15T04:06:56.571Z,93.24
2022-10-15T04:09:33.897Z,93.36
2022-10-15T04:12:05.857Z,92.91
2022-10-15T04:14:36.228Z,92.96
2022-10-15T04:17:11.578Z,93.16
2022-10-15T04:19:42.458Z,92.92
2022-10-15T04:22:12.430Z,92.81
2022-10-15T04:24:41.211Z,93.07
2022-10-15T04:27:12.331Z,92.48
2022-10-15T04:29:41.043Z,92.66
2022-10-15T04:35:09.042Z,92.79
2022-10-15T04:37:40.657Z,92.72
2022-10-15T04:42:54.655Z,93.25
2022-10-15T04:47:55.226Z,92.71
2022-10-15T04:50:25.367Z,92.71
2022-10-15T04:52:56.719Z,92.65
2022-10-15T04:58:07.275Z,93.11
2022-10-15T05:00:36.621Z,92.51
2022-10-15T05:03:20.728Z,92.49
2022-10-15T05:05:50.128Z,92.44
2022-10-15T05:11:09.663Z,92.62
2022-10-15T05:13:39.734Z,92.23
2022-10-15T05:16:17.143Z,92.82
2022-10-15T05:18:49.141Z,92.69
2022-10-15T05:21:24.060Z,92.70
2022-10-15T05:24:01.573Z,92.44
2022-10-15T05:26:34.033Z,92.38
2022-10-15T05:29:03.187Z,92.93
2022-10-15T05:31:48.356Z,92.79
2022-10-15T05:34:17.137Z,92.50
2022-10-15T05:36:45.852Z,92.42
2022-10-15T05:39:16.981Z,92.62
2022-10-15T05:42:00.296Z,92.22
2022-10-15T05:44:31.880Z,92.42
2022-10-15T05:47:09.228Z,92.27
2022-10-15T05:52:23.691Z,92.58
2022-10-15T05:54:56.446Z,92.78
2022-10-15T05:57:25.744Z,92.62
2022-10-15T06:00:00.478Z,92.37
2022-10-15T06:02:29.380Z,92.69
2022-10-15T06:04:59.647Z,92.65
2022-10-15T06:07:29.343Z,92.92
2022-10-15T06:10:15.769Z,92.70
2022-10-15T06:12:44.961Z,92.70
2022-10-15T06:15:22.238Z,92.37
2022-10-15T06:17:54.664Z,92.34
2022-10-15T06:20:23.180Z,92.88
2022-10-15T06:22:52.495Z,92.64
2022-10-15T06:25:22.634Z,92.42
2022-10-15T06:27:51.767Z,92.30
2022-10-15T06:30:21.477Z,92.19
2022-10-15T06:32:50.999Z,92.28
2022-10-15T06:35:23.039Z,92.78
2022-10-15T06:37:51.915Z,92.13
2022-10-15T06:40:35.701Z,92.10
2022-10-15T06:45:52.969Z,92.20
2022-10-15T06:50:51.050Z,92.59
2022-10-15T06:53:34.305Z,92.16
2022-10-15T06:56:09.022Z,92.52
2022-10-15T06:58:39.291Z,92.28
2022-10-15T07:01:10.188Z,92.06
2022-10-15T07:03:39.194Z,92.13
2022-10-15T07:06:10.314Z,91.96
2022-10-15T07:08:40.597Z,92.39
2022-10-15T07:11:13.494Z,92.09
2022-10-15T07:13:42.094Z,91.96
2022-10-15T07:16:14.770Z,91.65
2022-10-15T07:18:51.598Z,91.95
2022-10-15T07:21:20.238Z,91.82
2022-10-15T07:23:49.923Z,91.90
2022-10-15T07:26:19.773Z,92.02
2022-10-15T07:28:50.153Z,91.95
2022-10-15T07:31:18.449Z,91.74
2022-10-15T07:33:50.521Z,91.90
2022-10-15T07:36:23.009Z,91.70
2022-10-15T07:38:52.009Z,91.96
2022-10-15T07:41:26.840Z,91.90
2022-10-15T07:43:55.401Z,92.29
2022-10-15T07:46:23.768Z,91.99
2022-10-15T07:48:53.930Z,91.69
2022-10-15T07:51:25.570Z,91.50
2022-10-15T07:53:54.062Z,91.60
2022-10-15T07:56:31.855Z,91.33
2022-10-15T07:59:05.310Z,91.47
2022-10-15T08:01:34.174Z,91.17
2022-10-15T08:04:03.172Z,91.53
2022-10-15T08:06:42.222Z,91.22
2022-10-15T08:09:12.895Z,91.28
2022-10-15T08:11:44.467Z,91.41
2022-10-15T08:14:27.907Z,91.47
2022-10-15T08:17:04.666Z,91.22
2022-10-15T08:19:33.410Z,91.78
2022-10-15T08:22:09.515Z,91.47
2022-10-15T08:24:37.795Z,91.25
2022-10-15T08:27:15.034Z,91.17
2022-10-15T08:29:43.561Z,91.28
2022-10-15T08:32:21.456Z,91.29
2022-10-15T08:34:50.406Z,91.01
2022-10-15T08:37:23.651Z,90.98
2022-10-15T08:39:59.406Z,90.83
2022-10-15T08:42:38.992Z,90.65
2022-10-15T08:45:23.323Z,90.52
2022-10-15T08:48:00.379Z,90.70
2022-10-15T08:50:39.880Z,90.37
2022-10-15T08:53:13.445Z,90.49
2022-10-15T08:55:47.810Z,90.00
2022-10-15T08:58:30.375Z,90.39
2022-10-15T09:01:07.840Z,90.04
2022-10-15T09:06:41.948Z,89.56
2022-10-15T09:09:19.626Z,89.48
2022-10-15T09:12:00.846Z,89.22
2022-10-15T09:14:43.081Z,89.02
2022-10-15T09:17:41.742Z,88.64
2022-10-15T09:20:20.863Z,88.26
2022-10-15T09:23:09.966Z,87.81
2022-10-15T09:25:48.697Z,87.55
2022-10-15T09:28:21.307Z,87.34
2022-10-15T09:31:01.372Z,87.01
2022-10-15T09:33:42.466Z,86.51
2022-10-15T09:36:33.606Z,86.47
2022-10-15T09:39:29.554Z,85.78
2022-10-15T09:42:26.307Z,85.86
2022-10-15T09:48:22.337Z,85.35
2022-10-15T09:51:11.670Z,85.50
2022-10-15T09:54:12.812Z,85.41
2022-10-15T09:57:09.888Z,85.23
2022-10-15T10:03:13.587Z,85.03
2022-10-15T10:06:11.268Z,84.94
2022-10-15T10:09:02.489Z,84.64
2022-10-15T10:12:19.896Z,84.37
2022-10-15T10:15:18.597Z,84.50
2022-10-15T10:18:23.947Z,84.50
2022-10-15T10:24:41.347Z,84.54
2022-10-15T10:30:34.451Z,84.74
2022-10-15T10:33:18.096Z,84.84
2022-10-15T10:36:15.615Z,84.58
2022-10-15T10:39:05.919Z,84.57
2022-10-15T10:42:49.177Z,84.54
2022-10-15T10:45:41.721Z,84.60
2022-10-15T10:48:26.951Z,84.37
2022-10-15T10:51:45.820Z,84.09
2022-10-15T10:54:36.519Z,84.07
2022-10-15T10:57:30.592Z,84.11
2022-10-15T11:00:11.389Z,83.93
2022-10-15T11:02:44.504Z,83.97
2022-10-15T11:05:29.066Z,83.64
2022-10-15T11:11:24.446Z,82.79
2022-10-15T11:14:20.449Z,82.42
2022-10-15T11:17:03.368Z,81.76
2022-10-15T11:20:12.133Z,81.35
2022-10-15T11:23:04.195Z,80.86
2022-10-15T11:25:53.868Z,81.10
2022-10-15T11:29:05.976Z,80.58
2022-10-15T11:32:02.007Z,80.28
2022-10-15T11:35:01.829Z,79.88
2022-10-15T11:37:50.266Z,79.53
2022-10-15T11:40:35.334Z,79.48
2022-10-15T11:44:02.608Z,79.50
2022-10-15T11:46:50.392Z,78.94
2022-10-15T11:49:46.762Z,78.66
2022-10-15T11:52:52.998Z,78.46
2022-10-15T11:55:53.644Z,78.34
2022-10-15T12:02:05.304Z,78.54
2022-10-15T12:04:51.360Z,78.36
2022-10-15T12:07:29.881Z,77.99
2022-10-15T12:10:22.068Z,77.98
2022-10-15T12:13:17.765Z,78.38
2022-10-15T12:15:56.971Z,78.35
2022-10-15T12:18:52.421Z,78.00
2022-10-15T12:21:49.567Z,78.02
2022-10-15T12:27:44.863Z,78.50
2022-10-15T12:30:38.703Z,78.18
2022-10-15T12:33:54.868Z,77.99
2022-10-15T12:36:45.762Z,78.15
2022-10-15T12:39:47.573Z,77.54
2022-10-15T12:42:31.963Z,77.74
2022-10-15T12:45:04.658Z,77.42
2022-10-15T12:47:55.448Z,77.53
2022-10-15T12:50:35.987Z,77.27
2022-10-15T12:53:57.705Z,77.33
2022-10-15T12:56:43.131Z,76.97
2022-10-15T12:59:51.750Z,77.46
2022-10-15T13:02:50.733Z,77.38
2022-10-15T13:09:26.520Z,77.44
2022-10-15T13:12:11.089Z,77.53
2022-10-15T13:14:47.669Z,77.68
2022-10-15T13:17:27.055Z,77.88
2022-10-15T13:20:34.326Z,78.39
2022-10-15T13:23:31.039Z,78.27
2022-10-15T13:26:34.610Z,78.92
2022-10-15T13:29:09.840Z,79.48
2022-10-15T13:31:50.150Z,79.85
2022-10-15T13:34:32.262Z,80.06
2022-10-15T13:37:37.709Z,80.94
2022-10-15T13:40:21.093Z,81.30
2022-10-15T13:45:55.943Z,82.15
2022-10-15T13:51:23.565Z,82.44
2022-10-15T13:54:13.760Z,82.81
2022-10-15T13:59:59.047Z,82.91
2022-10-15T14:02:52.176Z,83.42
2022-10-15T14:05:30.879Z,83.53
2022-10-15T14:11:07.434Z,84.04
2022-10-15T14:13:47.080Z,84.35
2022-10-15T14:20:14.372Z,85.29
2022-10-15T14:22:59.641Z,85.65
2022-10-15T14:25:55.085Z,85.93
2022-10-15T14:32:10.091Z,86.19
2022-10-15T14:34:45.415Z,86.77
2022-10-15T14:37:48.326Z,86.50
2022-10-15T14:40:38.543Z,86.43
2022-10-15T14:46:36.199Z,87.41
2022-10-15T14:49:41.837Z,87.67
2022-10-15T14:55:25.980Z,88.39
2022-10-15T15:00:49.250Z,88.83
2022-10-15T15:03:39.731Z,88.87
2022-10-15T15:06:27.409Z,89.33
2022-10-15T15:09:08.632Z,89.38
2022-10-15T15:11:42.193Z,89.51
2022-10-15T15:14:33.090Z,89.69
2022-10-15T15:17:07.136Z,89.67
2022-10-15T15:20:08.796Z,89.38
2022-10-15T15:22:57.981Z,89.58
2022-10-15T15:25:38.942Z,89.49
2022-10-15T15:28:30.761Z,89.77
2022-10-15T15:34:02.520Z,89.92
2022-10-15T15:36:49.746Z,89.92
2022-10-15T15:39:47.371Z,89.79
2022-10-15T15:45:45.413Z,90.14
2022-10-15T15:48:22.676Z,89.95
2022-10-15T15:51:33.334Z,90.01
2022-10-15T15:54:47.281Z,89.85
2022-10-15T15:57:26.625Z,90.15
2022-10-15T16:03:24.341Z,90.42
2022-10-15T16:06:04.996Z,90.86
2022-10-15T16:08:46.732Z,90.87
2022-10-15T16:14:12.513Z,91.28
2022-10-15T16:17:01.970Z,91.24
2022-10-15T16:19:35.677Z,91.34
2022-10-15T16:22:11.667Z,91.24
2022-10-15T16:24:48.529Z,91.35
2022-10-15T16:27:47.179Z,91.14
2022-10-15T16:30:21.952Z,91.37
2022-10-15T16:35:49.484Z,91.26
2022-10-15T16:38:25.903Z,91.44
2022-10-15T16:41:10.136Z,91.52
2022-10-15T16:43:54.008Z,91.61
2022-10-15T16:46:25.831Z,91.53
2022-10-15T16:49:01.909Z,91.50
2022-10-15T16:51:34.986Z,91.30
2022-10-15T16:54:09.386Z,91.59
2022-10-15T16:59:56.316Z,91.33
2022-10-15T17:02:37.001Z,91.26
2022-10-15T17:05:22.314Z,91.29
2022-10-15T17:08:14.514Z,91.43
2022-10-15T17:10:50.415Z,91.31
2022-10-15T17:13:26.317Z,91.64
2022-10-15T17:19:26.451Z,91.72
2022-10-15T17:22:06.748Z,91.80
2022-10-15T17:24:49.219Z,91.66
2022-10-15T17:27:40.820Z,91.87
2022-10-15T17:30:35.969Z,92.08
2022-10-15T17:33:58.202Z,91.80
2022-10-15T17:36:44.485Z,91.87
2022-10-15T17:39:17.488Z,92.08
2022-10-15T17:41:56.943Z,92.16
2022-10-15T17:44:27.130Z,91.97
2022-10-15T17:47:09.905Z,92.36
2022-10-15T17:49:45.397Z,92.23
2022-10-15T17:52:24.943Z,92.51
2022-10-15T17:55:07.448Z,92.21
2022-10-15T17:58:10.181Z,92.52
2022-10-15T18:00:38.581Z,92.55
2022-10-15T18:03:31.575Z,92.60
2022-10-15T18:06:21.267Z,92.65
2022-10-15T18:09:08.767Z,92.41
2022-10-15T18:11:45.218Z,92.05
2022-10-15T18:14:23.383Z,92.14
2022-10-15T18:16:57.722Z,91.80
2022-10-15T18:19:30.004Z,91.88
2022-10-15T18:22:18.085Z,91.76
2022-10-15T18:25:00.871Z,91.78
2022-10-15T18:27:33.389Z,91.50
2022-10-15T18:30:17.489Z,91.60
2022-10-15T18:33:13.491Z,91.43
2022-10-15T18:35:44.474Z,91.43
2022-10-15T18:38:19.647Z,91.08
2022-10-15T18:40:50.549Z,91.07
2022-10-15T18:43:41.694Z,91.28
2022-10-15T18:49:07.379Z,91.29
2022-10-15T18:51:43.821Z,91.32
2022-10-15T18:54:28.239Z,91.23
2022-10-15T18:57:07.961Z,91.52
2022-10-15T18:59:58.247Z,91.58
2022-10-15T19:02:41.095Z,91.34
2022-10-15T19:05:11.839Z,90.94
2022-10-15T19:07:48.593Z,91.01
2022-10-15T19:10:51.331Z,91.00
2022-10-15T19:13:23.274Z,91.40
2022-10-15T19:15:56.630Z,91.06
2022-10-15T19:18:39.248Z,91.15
2022-10-15T19:21:17.828Z,91.59
2022-10-15T19:23:59.249Z,91.56
2022-10-15T19:27:12.797Z,91.12
2022-10-15T19:30:18.121Z,91.50
2022-10-15T19:32:50.587Z,91.35
2022-10-15T19:35:37.316Z,91.51
2022-10-15T19:38:27.554Z,91.53
2022-10-15T19:43:58.072Z,91.09
2022-10-15T19:46:54.287Z,91.55
2022-10-15T19:49:38.124Z,90.84
2022-10-15T19:52:20.593Z,91.34
2022-10-15T19:55:18.711Z,90.63
2022-10-15T19:57:52.711Z,91.16
2022-10-15T20:00:22.956Z,91.13
2022-10-15T20:03:11.282Z,90.78
2022-10-15T20:05:57.789Z,90.77
2022-10-15T20:08:29.125Z,90.67
2022-10-15T20:11:21.435Z,90.99
2022-10-15T20:14:08.273Z,90.98
2022-10-15T20:16:56.257Z,91.21
2022-10-15T20:19:36.828Z,90.99
2022-10-15T20:22:26.434Z,90.61
2022-10-15T20:31:01.898Z,89.92
2022-10-15T20:33:41.916Z,90.06
2022-10-15T20:36:41.498Z,90.40
2022-10-15T20:39:21.080Z,89.75
2022-10-15T20:42:14.931Z,90.29
2022-10-15T20:44:51.380Z,90.17
2022-10-15T20:47:27.319Z,89.99
2022-10-15T20:50:00.182Z,90.19
2022-10-15T20:52:48.042Z,90.13
2022-10-15T20:55:21.432Z,89.92
2022-10-15T20:58:12.084Z,90.25
2022-10-15T21:01:03.930Z,90.05
2022-10-15T21:03:43.681Z,90.29
2022-10-15T21:06:25.102Z,90.40
2022-10-15T21:09:47.083Z,90.56
2022-10-15T21:12:31.506Z,89.98
2022-10-15T21:15:13.593Z,90.50
2022-10-15T21:17:59.381Z,90.52
2022-10-15T21:20:41.868Z,90.49
2022-10-15T21:23:28.814Z,90.17
2022-10-15T21:26:10.807Z,89.95
2022-10-15T21:29:03.172Z,90.34
2022-10-15T21:31:49.747Z,89.87
2022-10-15T21:34:21.915Z,90.18
2022-10-15T21:39:51.865Z,90.14
2022-10-15T21:45:56.073Z,90.17
2022-10-15T21:48:36.241Z,90.50
2022-10-15T21:51:16.391Z,90.10
2022-10-15T21:54:03.740Z,90.33
2022-10-15T21:56:35.992Z,90.04
2022-10-15T21:59:09.729Z,90.12
2022-10-15T22:07:21.042Z,90.42
2022-10-15T22:10:23.219Z,90.37
2022-10-15T22:13:17.110Z,89.98
2022-10-15T22:16:03.475Z,89.98
2022-10-15T22:18:41.975Z,90.04
2022-10-15T22:21:33.142Z,89.58
2022-10-15T22:24:16.231Z,89.74
2022-10-15T22:26:47.821Z,89.71
2022-10-15T22:29:34.505Z,89.79
2022-10-15T22:32:26.984Z,90.12
2022-10-15T22:34:58.765Z,89.81
2022-10-15T22:37:39.761Z,89.73
2022-10-15T22:40:16.663Z,89.92
2022-10-15T22:42:52.668Z,89.16
2022-10-15T22:45:24.610Z,89.02
2022-10-15T22:48:16.858Z,88.79
2022-10-15T22:50:58.351Z,89.25
2022-10-15T22:53:54.806Z,89.20
2022-10-15T22:56:27.070Z,89.20
2022-10-15T22:59:04.539Z,88.99
2022-10-15T23:01:39.295Z,88.88
2022-10-15T23:04:16.840Z,88.95
2022-10-15T23:12:52.271Z,88.72
2022-10-15T23:15:36.243Z,88.29
2022-10-15T23:18:24.581Z,88.47
2022-10-15T23:21:06.976Z,88.89
2022-10-15T23:26:34.870Z,88.04
2022-10-15T23:29:10.728Z,88.05
2022-10-15T23:37:39.682Z,88.21
2022-10-15T23:40:50.005Z,88.19
2022-10-15T23:43:28.705Z,88.66
2022-10-15T23:46:01.270Z,87.99
2022-10-15T23:48:40.509Z,88.45
2022-10-15T23:51:28.002Z,88.07
2022-10-15T23:57:02.997Z,88.49
2022-10-15T23:59:35.499Z,88.40
